Terminal Aerodrome Forecast
Issued by NWS Nashville, TN

Current Version | Previous Version | Text Only | Print | Product List | Glossary On
Versions: 1 2 3 4 5 6 7 8 9 10 11 12 13 14 15 16 17 18 19 20 21 22 23 24 25 26
000
FTUS44 KOHX 030100 AAC
TAFBNA
TAF AMD
KBNA 030159Z 0302/0324 23002KT P6SM -SHRA VCTS BKN045CB OVC070
     FM030400 21002KT 4SM BR SCT250
      TEMPO 0310/0312 2SM BR SCT250
     FM031500 08003KT P6SM BKN025
     FM031700 06004KT P6SM BKN050=

USA.gov is the U.S. government's official web portal to all federal, state and local government web resources and services.